M/V Oriole — WDE6982 — position and weather

sailwx.info

Track history (hours):
 
Tides and Currents Weather Stations Pressure Air Temp Water Temp Dewpoint Dewpoint Depression Visibility Wind Speed Wind Dir Waves Ship Positions

M/V Oriole

Owner: NATIVE SON INC., ST. THOMAS, VI. More information available from US FCC via Universal Licensing System and Coast Guard Vessel Documentation Center.

Last reported at 2015-May-03 14:20 UTC. Time now 2015-May-04 01:59 UTC.
Position N 18°23' W 064°42'.

Length 25 m.

Type: Passenger vessel. MMSI: 366755670.

Date/timePositionNaut miles runAvg speedWind from/ knotsBaromVisibWave heightAir tempDewpointWater temp
2015-May-03 14:20N 18°23' W 064°42'3 3.4
2015-May-03 13:33N 18°23' W 064°39'10 0.6
2015-May-02 22:04N 18°20' W 064°49'713.3
2015-May-02 21:32N 18°23' W 064°42'1 0.7
2015-May-02 20:32N 18°23' W 064°42'9 9.3
2015-May-02 19:33N 18°20' W 064°51'1010.2
2015-May-02 18:33N 18°23' W 064°41'2 0.5
2015-May-02 14:33N 18°23' W 064°43'4 0.3
2015-May-02 01:06N 18°23' W 064°38'4 6.3
2015-May-02 00:31N 18°23' W 064°42'7 3.0
2015-May-01 22:09N 18°20' W 064°49'2 3.0
2015-May-01 21:28N 18°21' W 064°47'4 4.8
2015-May-01 20:33N 18°23' W 064°43'1 1.0
2015-May-01 19:33N 18°23' W 064°42'8 1.6
2015-May-01 14:32N 18°20' W 064°49'9 0.6
2015-Apr-30 22:33N 18°23' W 064°40'10 8.5
2015-Apr-30 21:24N 18°20' W 064°50'3 2.9
2015-Apr-30 20:32N 18°20' W 064°48'3 2.7
2015-Apr-30 19:33N 18°22' W 064°46'3 1.3
2015-Apr-30 17:29N 18°20' W 064°48'6 5.1
2015-Apr-30 16:21N 18°23' W 064°43'6 1.8
2015-Apr-30 13:10N 18°20' W 064°48'4 5.8
2015-Apr-30 12:27N 18°23' W 064°44'4 4.1
2015-Apr-30 11:24N 18°20' W 064°48'7 6.8
2015-Apr-30 10:24N 18°23' W 064°41'1 0.1
2015-Apr-29 22:29N 18°23' W 064°42'6 5.1
2015-Apr-29 21:19N 18°20' W 064°48'4 5.1
2015-Apr-29 20:33N 18°23' W 064°45'1 0.6
2015-Apr-29 19:32N 18°22' W 064°45'4 1.7
2015-Apr-29 17:22N 18°20' W 064°48'7 8.2
2015-Apr-29 16:33N 18°23' W 064°42'8 3.2
2015-Apr-29 14:05N 18°20' W 064°50'2 1.8
2015-Apr-29 13:05N 18°20' W 064°48'610.3
2015-Apr-29 12:29N 18°23' W 064°42'7 7.1
2015-Apr-29 11:29N 18°20' W 064°49'7 7.5
2015-Apr-29 10:31N 18°23' W 064°42'3 0.2
2015-Apr-28 22:18N 18°23' W 064°39'9 4.9
2015-Apr-28 20:30N 18°20' W 064°48'2 2.5
2015-Apr-28 19:33N 18°22' W 064°46'4 1.9
2015-Apr-28 17:20N 18°20' W 064°50'8 9.8
2015-Apr-28 16:28N 18°23' W 064°42'8 2.7
2015-Apr-28 13:33N 18°20' W 064°50'8 7.9
2015-Apr-28 12:33N 18°23' W 064°42'6 5.9
2015-Apr-28 11:31N 18°20' W 064°48'6 5.2
2015-Apr-28 10:25N 18°23' W 064°42'4 0.3
2015-Apr-27 22:16N 18°23' W 064°39'9 5.1
2015-Apr-27 20:29N 18°20' W 064°48'3 3.7
2015-Apr-27 19:33N 18°22' W 064°45'5 2.4
2015-Apr-27 17:26N 18°20' W 064°50'8 9.1
2015-Apr-27 16:32N 18°23' W 064°42'8 2.6
2015-Apr-27 13:31N 18°20' W 064°50'6 5.5
2015-Apr-27 12:25N 18°23' W 064°44'6 7.3
2015-Apr-27 11:32N 18°20' W 064°50'8 8.0
2015-Apr-27 10:31N 18°23' W 064°42'3 0.2
2015-Apr-26 22:33N 18°22' W 064°45'2 0.3
2015-Apr-26 14:29N 18°21' W 064°47'8 6.9
2015-Apr-26 13:18N 18°23' W 064°39'14 0.9
2015-Apr-25 22:15N 18°18' W 064°52'912.6
2015-Apr-25 21:34N 18°23' W 064°44'3 1.3
2015-Apr-25 19:29N 18°23' W 064°42'8 1.6
2015-Apr-25 14:24N 18°20' W 064°50'12 0.7
2015-Apr-24 22:20N 18°24' W 064°38'1210.3
2015-Apr-24 21:08N 18°20' W 064°50'2 3.7
2015-Apr-24 20:29N 18°20' W 064°48'4 3.7
2015-Apr-24 19:33N 18°23' W 064°45'5 2.4
2015-Apr-24 17:28N 18°20' W 064°50'8 8.5
2015-Apr-24 16:32N 18°23' W 064°42'6 2.0
2015-Apr-24 13:28N 18°20' W 064°48'1 1.5
2015-Apr-24 12:33N 18°21' W 064°49'1 1.3
2015-Apr-24 11:31N 18°20' W 064°48'7 7.1
2015-Apr-24 10:31N 18°23' W 064°41'3 0.2
2015-Apr-23 23:32N 18°23' W 064°44'6 4.1
2015-Apr-23 22:10N 18°24' W 064°38'915.5
2015-Apr-23 21:33N 18°22' W 064°47'2 1.5
2015-Apr-23 20:27N 18°20' W 064°48'4 4.3
2015-Apr-23 19:32N 18°23' W 064°45'6 2.5
2015-Apr-23 17:15N 18°20' W 064°50'811.4
2015-Apr-23 16:33N 18°23' W 064°42'  
Track history (hours):
 
Tides and Currents Weather Stations Pressure Air Temp Water Temp Dewpoint Dewpoint Depression Visibility Wind Speed Wind Dir Waves Ship Positions

M/V Oriole

Owner: NATIVE SON INC., ST. THOMAS, VI. More information available from US FCC via Universal Licensing System and Coast Guard Vessel Documentation Center.

Last reported at 2015-May-03 14:20 UTC. Time now 2015-May-04 01:59 UTC.
Position N 18°23' W 064°42'.

Length 25 m.

Type: Passenger vessel. MMSI: 366755670.

Date/timePositionNaut miles runAvg speedWind from/ knotsBaromVisibWave heightAir tempDewpointWater temp
2015-May-03 14:20N 18°23' W 064°42'3 3.4
2015-May-03 13:33N 18°23' W 064°39'10 0.6
2015-May-02 22:04N 18°20' W 064°49'713.3
2015-May-02 21:32N 18°23' W 064°42'1 0.7
2015-May-02 20:32N 18°23' W 064°42'9 9.3
2015-May-02 19:33N 18°20' W 064°51'1010.2
2015-May-02 18:33N 18°23' W 064°41'2 0.5
2015-May-02 14:33N 18°23' W 064°43'4 0.3
2015-May-02 01:06N 18°23' W 064°38'4 6.3
2015-May-02 00:31N 18°23' W 064°42'7 3.0
2015-May-01 22:09N 18°20' W 064°49'2 3.0
2015-May-01 21:28N 18°21' W 064°47'4 4.8
2015-May-01 20:33N 18°23' W 064°43'1 1.0
2015-May-01 19:33N 18°23' W 064°42'8 1.6
2015-May-01 14:32N 18°20' W 064°49'9 0.6
2015-Apr-30 22:33N 18°23' W 064°40'10 8.5
2015-Apr-30 21:24N 18°20' W 064°50'3 2.9
2015-Apr-30 20:32N 18°20' W 064°48'3 2.7
2015-Apr-30 19:33N 18°22' W 064°46'3 1.3
2015-Apr-30 17:29N 18°20' W 064°48'6 5.1
2015-Apr-30 16:21N 18°23' W 064°43'6 1.8
2015-Apr-30 13:10N 18°20' W 064°48'4 5.8
2015-Apr-30 12:27N 18°23' W 064°44'4 4.1
2015-Apr-30 11:24N 18°20' W 064°48'7 6.8
2015-Apr-30 10:24N 18°23' W 064°41'1 0.1
2015-Apr-29 22:29N 18°23' W 064°42'6 5.1
2015-Apr-29 21:19N 18°20' W 064°48'4 5.1
2015-Apr-29 20:33N 18°23' W 064°45'1 0.6
2015-Apr-29 19:32N 18°22' W 064°45'4 1.7
2015-Apr-29 17:22N 18°20' W 064°48'7 8.2
2015-Apr-29 16:33N 18°23' W 064°42'8 3.2
2015-Apr-29 14:05N 18°20' W 064°50'2 1.8
2015-Apr-29 13:05N 18°20' W 064°48'610.3
2015-Apr-29 12:29N 18°23' W 064°42'7 7.1
2015-Apr-29 11:29N 18°20' W 064°49'7 7.5
2015-Apr-29 10:31N 18°23' W 064°42'3 0.2
2015-Apr-28 22:18N 18°23' W 064°39'9 4.9
2015-Apr-28 20:30N 18°20' W 064°48'2 2.5
2015-Apr-28 19:33N 18°22' W 064°46'4 1.9
2015-Apr-28 17:20N 18°20' W 064°50'8 9.8
2015-Apr-28 16:28N 18°23' W 064°42'8 2.7
2015-Apr-28 13:33N 18°20' W 064°50'8 7.9
2015-Apr-28 12:33N 18°23' W 064°42'6 5.9
2015-Apr-28 11:31N 18°20' W 064°48'6 5.2
2015-Apr-28 10:25N 18°23' W 064°42'4 0.3
2015-Apr-27 22:16N 18°23' W 064°39'9 5.1
2015-Apr-27 20:29N 18°20' W 064°48'3 3.7
2015-Apr-27 19:33N 18°22' W 064°45'5 2.4
2015-Apr-27 17:26N 18°20' W 064°50'8 9.1
2015-Apr-27 16:32N 18°23' W 064°42'8 2.6
2015-Apr-27 13:31N 18°20' W 064°50'6 5.5
2015-Apr-27 12:25N 18°23' W 064°44'6 7.3
2015-Apr-27 11:32N 18°20' W 064°50'8 8.0
2015-Apr-27 10:31N 18°23' W 064°42'3 0.2
2015-Apr-26 22:33N 18°22' W 064°45'2 0.3
2015-Apr-26 14:29N 18°21' W 064°47'8 6.9
2015-Apr-26 13:18N 18°23' W 064°39'14 0.9
2015-Apr-25 22:15N 18°18' W 064°52'912.6
2015-Apr-25 21:34N 18°23' W 064°44'3 1.3
2015-Apr-25 19:29N 18°23' W 064°42'8 1.6
2015-Apr-25 14:24N 18°20' W 064°50'12 0.7
2015-Apr-24 22:20N 18°24' W 064°38'1210.3
2015-Apr-24 21:08N 18°20' W 064°50'2 3.7
2015-Apr-24 20:29N 18°20' W 064°48'4 3.7
2015-Apr-24 19:33N 18°23' W 064°45'5 2.4
2015-Apr-24 17:28N 18°20' W 064°50'8 8.5
2015-Apr-24 16:32N 18°23' W 064°42'6 2.0
2015-Apr-24 13:28N 18°20' W 064°48'1 1.5
2015-Apr-24 12:33N 18°21' W 064°49'1 1.3
2015-Apr-24 11:31N 18°20' W 064°48'7 7.1
2015-Apr-24 10:31N 18°23' W 064°41'3 0.2
2015-Apr-23 23:32N 18°23' W 064°44'6 4.1
2015-Apr-23 22:10N 18°24' W 064°38'915.5
2015-Apr-23 21:33N 18°22' W 064°47'2 1.5
2015-Apr-23 20:27N 18°20' W 064°48'4 4.3
2015-Apr-23 19:32N 18°23' W 064°45'6 2.5
2015-Apr-23 17:15N 18°20' W 064°50'811.4
2015-Apr-23 16:33N 18°23' W 064°42'  

Dump ship's entire track history